Terminal Aerodrome Forecast
Issued by NWS Charleston, SC

Home | Current Version | Previous Version | Text Only | Print | Product List | Glossary On
Versions: 1 2 3 4 5 6 7 8 9 10 11 12 13 14 15 16
202
FTUS42 KCHS 220811 AAA
TAFSAV
TAF AMD
KSAV 220811Z 2208/2306 VRB03KT P6SM VCSH SCT015 BKN200
      TEMPO 2211/2213 4SM BR SCT005 BKN010
     FM221600 19005KT P6SM VCTS SCT030CB BKN080
      TEMPO 2217/2221 4SM TSRA BR SCT015 BKN030CB
     FM222200 18004KT P6SM SCT040 BKN150=

USA.gov is the U.S. government's official web portal to all federal, state and local government web resources and services.